Peace River Airport
CYPE : now visible

Airfield :











YOU CAN JOIN US ON...

 
LOGIN :

Register | Disclaimer

   EN    FR    IT 

 









Legend :    VFR   Marginal VFR   IFR   Intensive IFR   Very Intensive IFR
Visi :
Ceiling :
>= 8 km
>= 3000ft
5 to 8 km
1000 to 3000 ft
1500m to 5 km
500 to 1000 ft
800 to 1500m
200 to 500 ft
< 800m
< 200 ft
Symbols :   Thunderstorms  Fog  Heavy snow  Heavy precipitations  Wind > 20 kt






- Airport Elevation : 1873 ft
- IATA code : YPE


CYPE - Peace River

CURRENT METAR :
  • 180600Z 29019KT 15SM FEW070 00/M04 A2999 RMK AC1 SLP185

EXPIRED METARs :
  • 180500Z 29019G25KT 15SM FEW070 01/M03 A2997 RMK AC1 SLP178
  • 180400Z 27009KT 15SM SCT070 M03/M04 A2996 RMK AC3 SLP180

TAF TAF CYPE
Valid from the 18 at 01:00 until the 18 at 13:00 UTC


180038Z 1801/1813 29012KT P6SM BKN050 OVC100
TEMPO 1801/1803 SCT050 OVC100
FM180300 28012KT P6SM FEW050 SCT160
FM180800 28014KT P6SM FEW060 RMK NXT FCST BY 180700Z
CZEG FIR / North America



MET'MAP, your aeronautical weather chart ! - Copyright ORBIFLY December 2007 - Disclaimer

ORBIFLY MET'MAP TEAM :

Programming & Development : Alexandra Zaïnal
Concept & original design : Baudouin d'Aumeries
Assistance for programming : Marc-Olivier Méhu
Technical & hardware support : Manuel Goepfert

Contact : metmap@orbifly.com




SOURCES & CREDITS :

   NOAA       Earth
Advisory